Time;durP1;ratioP1;P1;durP2;ratioP2;P2;SDS_P1;SDS_P2;PMS_P1;PMS_P2;Temp;Humidity;BMP_temperature;BMP_pressure;BME280_temperature;BME280_humidity;BME280_pressure;Samples;Min_cycle;Max_cycle;Signal;HPM_P1;HPM_P2
2023/07/21 00:01:48;;;;;;;5.93;1.80;;;;;;;12.56;100.00;100934.81;7389637;19;20436;-43
2023/07/21 00:04:18;;;;;;;4.77;2.00;;;;;;;12.57;100.00;100925.34;7366124;19;20433;-42
2023/07/21 00:06:47;;;;;;;4.17;1.93;;;;;;;12.54;100.00;100931.31;7389117;19;20388;-44
2023/07/21 00:09:17;;;;;;;3.90;2.03;;;;;;;12.46;100.00;100924.09;7364884;19;20399;-46
2023/07/21 00:11:47;;;;;;;4.27;1.97;;;;;;;12.46;100.00;100927.53;7390443;19;20499;-47
2023/07/21 00:14:19;;;;;;;5.20;2.20;;;;;;;12.49;100.00;100927.66;7364674;19;20455;-47
2023/07/21 00:16:53;;;;;;;6.07;2.47;;;;;;;12.45;100.00;100925.78;7389868;19;20760;-43
2023/07/21 00:19:22;;;;;;;6.03;1.73;;;;;;;12.40;100.00;100922.13;7365690;19;20395;-44
2023/07/21 00:21:52;;;;;;;4.30;1.87;;;;;;;12.35;100.00;100913.34;7388687;19;20423;-41
2023/07/21 00:24:22;;;;;;;6.83;2.10;;;;;;;12.29;100.00;100909.69;7364842;19;20394;-42
2023/07/21 00:26:52;;;;;;;7.50;2.10;;;;;;;12.29;100.00;100906.22;7388910;19;20414;-45
2023/07/21 00:29:25;;;;;;;5.20;2.27;;;;;;;12.28;100.00;100897.59;7364920;19;20486;-43
2023/07/21 00:31:55;;;;;;;4.10;2.30;;;;;;;12.21;100.00;100886.94;7388862;19;20430;-48
2023/07/21 00:34:25;;;;;;;4.47;2.33;;;;;;;12.21;100.00;100885.22;7365474;19;20391;-42
2023/07/21 00:36:58;;;;;;;6.20;2.20;;;;;;;12.17;100.00;100878.19;7388586;19;20734;-44
2023/07/21 00:39:28;;;;;;;4.00;2.23;;;;;;;12.14;100.00;100865.13;7366981;19;20399;-47
2023/07/21 00:41:58;;;;;;;3.67;1.87;;;;;;;12.14;100.00;100859.97;7392247;19;20514;-43
2023/07/21 00:44:30;;;;;;;5.70;2.40;;;;;;;12.16;100.00;100858.34;7364204;19;20414;-48
2023/07/21 00:47:00;;;;;;;4.40;2.30;;;;;;;12.09;100.00;100846.88;7388664;19;20439;-46
2023/07/21 00:49:31;;;;;;;4.43;2.30;;;;;;;12.08;100.00;100847.69;7362722;19;20399;-45
2023/07/21 00:52:01;;;;;;;4.43;2.27;;;;;;;12.00;100.00;100849.97;7389883;19;20432;-42
2023/07/21 00:54:31;;;;;;;4.67;2.43;;;;;;;11.95;100.00;100841.16;7364271;19;20391;-41
2023/07/21 00:57:00;;;;;;;4.50;2.50;;;;;;;11.95;100.00;100835.09;7388292;19;20391;-45
2023/07/21 00:59:32;;;;;;;5.70;1.70;;;;;;;11.91;100.00;100823.78;7364580;19;20958;-46
2023/07/21 01:02:02;;;;;;;6.67;2.50;;;;;;;11.87;100.00;100821.88;7387985;19;20432;-43
2023/07/21 01:04:32;;;;;;;3.90;1.90;;;;;;;11.84;100.00;100811.44;7364899;19;20745;-44
2023/07/21 01:07:05;;;;;;;6.10;2.83;;;;;;;11.72;100.00;100817.91;7388238;19;20399;-43
2023/07/21 01:09:36;;;;;;;7.40;2.50;;;;;;;11.73;100.00;100809.31;7365261;19;20421;-43
2023/07/21 01:12:06;;;;;;;10.53;3.13;;;;;;;11.75;100.00;100802.50;7387906;19;20407;-42
2023/07/21 01:14:39;;;;;;;6.73;3.10;;;;;;;11.79;100.00;100794.88;7359214;19;20403;-52
2023/07/21 01:17:10;;;;;;;7.17;3.00;;;;;;;11.72;100.00;100786.00;7397583;19;20407;-43
2023/07/21 01:19:41;;;;;;;15.00;6.90;;;;;;;11.85;100.00;100777.00;7369440;19;20415;-42
2023/07/21 01:22:12;;;;;;;15.27;7.43;;;;;;;12.17;100.00;100772.16;7393638;19;20451;-45
2023/07/21 01:24:45;;;;;;;13.70;6.60;;;;;;;12.28;100.00;100767.34;7370051;19;20464;-42
2023/07/21 01:27:20;;;;;;;5.03;3.20;;;;;;;12.20;100.00;100764.50;7395544;19;20404;-42
2023/07/21 01:29:50;;;;;;;9.40;4.57;;;;;;;12.22;100.00;100773.19;7370084;19;20418;-42
2023/07/21 01:32:22;;;;;;;9.90;4.17;;;;;;;12.13;100.00;100772.88;7395026;19;20451;-48
2023/07/21 01:34:52;;;;;;;7.37;3.70;;;;;;;12.15;100.00;100773.78;7363020;19;20994;-43
2023/07/21 01:37:23;;;;;;;6.77;3.50;;;;;;;12.11;100.00;100775.38;7393471;19;20523;-42
2023/07/21 01:39:53;;;;;;;7.90;3.77;;;;;;;12.05;100.00;100774.31;7367363;19;20391;-44
2023/07/21 01:42:29;;;;;;;17.17;5.80;;;;;;;11.96;100.00;100774.81;7393277;19;20443;-47
2023/07/21 01:45:00;;;;;;;7.53;3.80;;;;;;;12.01;100.00;100774.13;7370390;19;20772;-44
2023/07/21 01:47:31;;;;;;;4.97;2.83;;;;;;;11.97;100.00;100771.41;7394278;19;20408;-42
2023/07/21 01:50:01;;;;;;;9.87;3.90;;;;;;;11.98;100.00;100771.47;7368444;19;20427;-46
2023/07/21 01:52:32;;;;;;;7.33;3.03;;;;;;;11.79;100.00;100772.47;7393471;19;20451;-46
2023/07/21 01:55:06;;;;;;;9.90;4.00;;;;;;;11.96;100.00;100760.19;7367772;19;20424;-44
2023/07/21 01:57:45;;;;;;;6.23;3.80;;;;;;;11.95;100.00;100754.97;7394092;19;21262;-43
2023/07/21 02:00:16;;;;;;;8.70;4.87;;;;;;;12.07;100.00;100757.13;7367052;19;20518;-41
2023/07/21 02:02:46;;;;;;;6.30;3.57;;;;;;;12.04;100.00;100754.44;7394034;19;20866;-44
2023/07/21 02:05:20;;;;;;;7.47;3.83;;;;;;;11.94;100.00;100756.66;7365682;19;20431;-41
2023/07/21 02:07:50;;;;;;;7.50;4.10;;;;;;;11.97;100.00;100751.59;7394496;19;20416;-44
2023/07/21 02:10:20;;;;;;;6.67;3.57;;;;;;;11.96;100.00;100751.53;7365458;19;20873;-44
2023/07/21 02:12:52;;;;;;;7.83;3.30;;;;;;;11.82;100.00;100748.44;7393528;19;20883;-43
2023/07/21 02:15:22;;;;;;;8.87;3.60;;;;;;;11.78;100.00;100749.19;7367334;19;20426;-42
2023/07/21 02:17:52;;;;;;;5.40;3.17;;;;;;;11.79;100.00;100744.03;7394115;19;20414;-43
2023/07/21 02:20:22;;;;;;;7.57;3.83;;;;;;;11.73;100.00;100742.13;7366703;19;20420;-43
2023/07/21 02:22:51;;;;;;;7.60;4.00;;;;;;;11.80;100.00;100737.19;7393162;19;20827;-44
2023/07/21 02:25:21;;;;;;;10.13;3.70;;;;;;;11.69;100.00;100735.06;7366201;19;20431;-47
2023/07/21 02:27:53;;;;;;;5.07;2.90;;;;;;;11.68;100.00;100730.75;7393093;19;20403;-43
2023/07/21 02:30:23;;;;;;;6.20;3.07;;;;;;;11.68;100.00;100733.31;7366258;19;20435;-43
2023/07/21 02:32:52;;;;;;;3.90;2.53;;;;;;;11.42;100.00;100724.59;7391540;19;20448;-42
2023/07/21 02:35:22;;;;;;;4.60;2.50;;;;;;;11.44;100.00;100710.03;7366941;19;21014;-43
2023/07/21 02:37:52;;;;;;;7.43;2.73;;;;;;;11.48;100.00;100710.22;7393299;19;20483;-42
2023/07/21 02:40:21;;;;;;;6.77;4.33;;;;;;;11.37;100.00;100706.34;7366766;19;20463;-45
2023/07/21 02:42:53;;;;;;;9.63;3.40;;;;;;;11.28;100.00;100708.59;7392190;19;20459;-42
2023/07/21 02:45:23;;;;;;;7.47;3.33;;;;;;;11.18;100.00;100695.31;7366326;19;20439;-41
2023/07/21 02:47:53;;;;;;;6.00;2.80;;;;;;;11.15;100.00;100695.22;7393408;19;20428;-43
2023/07/21 02:50:23;;;;;;;6.17;2.30;;;;;;;11.18;100.00;100684.97;7364744;19;20431;-44
2023/07/21 02:52:52;;;;;;;4.70;2.60;;;;;;;11.21;100.00;100679.94;7392322;19;20447;-45
2023/07/21 02:55:22;;;;;;;6.83;2.40;;;;;;;11.20;100.00;100673.03;7367135;19;20447;-43
2023/07/21 02:57:54;;;;;;;12.23;2.60;;;;;;;11.20;100.00;100657.53;7392862;19;20500;-46
2023/07/21 03:00:24;;;;;;;6.40;2.40;;;;;;;11.22;100.00;100644.66;7365949;19;20523;-45
2023/07/21 03:02:54;;;;;;;6.07;2.43;;;;;;;11.26;100.00;100646.53;7392121;19;20455;-43
2023/07/21 03:05:23;;;;;;;6.53;2.70;;;;;;;11.30;100.00;100637.19;7364912;19;20802;-43
2023/07/21 03:07:53;;;;;;;5.00;2.90;;;;;;;11.30;100.00;100632.91;7392583;19;20478;-44
2023/07/21 03:10:22;;;;;;;8.73;3.33;;;;;;;11.34;100.00;100628.75;7365019;19;20876;-42
2023/07/21 03:12:55;;;;;;;8.90;4.50;;;;;;;11.34;100.00;100633.91;7387959;19;20447;-47
2023/07/21 03:15:25;;;;;;;15.43;4.47;;;;;;;11.35;100.00;100633.09;7361440;19;20427;-44
2023/07/21 03:17:55;;;;;;;6.97;3.40;;;;;;;11.39;100.00;100629.78;7389271;19;20407;-44
2023/07/21 03:20:24;;;;;;;10.23;5.73;;;;;;;11.38;100.00;100635.75;7361721;19;21090;-43
2023/07/21 03:22:54;;;;;;;9.50;3.77;;;;;;;11.52;100.00;100632.78;7388695;19;20447;-47
2023/07/21 03:25:23;;;;;;;5.70;3.33;;;;;;;11.64;100.00;100632.38;7362070;19;20955;-45
2023/07/21 03:27:56;;;;;;;5.20;3.07;;;;;;;11.73;100.00;100628.41;7388936;19;20494;-44
2023/07/21 03:30:25;;;;;;;4.90;2.80;;;;;;;11.88;100.00;100627.16;7362382;19;20445;-43
2023/07/21 03:32:55;;;;;;;4.70;3.17;;;;;;;11.92;100.00;100634.22;7388510;19;20461;-43
2023/07/21 03:35:24;;;;;;;5.33;3.07;;;;;;;12.05;100.00;100640.69;7361525;19;20419;-49
2023/07/21 03:37:54;;;;;;;4.93;3.10;;;;;;;11.88;100.00;100646.16;7388486;19;20470;-47
2023/07/21 03:40:24;;;;;;;4.90;2.83;;;;;;;12.08;100.00;100650.25;7362366;19;20453;-45
2023/07/21 03:42:56;;;;;;;4.23;2.37;;;;;;;12.10;100.00;100662.44;7388085;19;20451;-44
2023/07/21 03:45:26;;;;;;;3.63;2.30;;;;;;;11.86;100.00;100680.53;7361580;19;20420;-43
2023/07/21 03:47:55;;;;;;;5.50;3.07;;;;;;;11.97;100.00;100686.97;7389478;19;20414;-46
2023/07/21 03:50:25;;;;;;;6.13;2.70;;;;;;;12.07;100.00;100687.31;7361027;19;20439;-43
2023/07/21 03:52:55;;;;;;;5.27;2.37;;;;;;;12.07;100.00;100693.38;7387915;19;20471;-44
2023/07/21 03:55:25;;;;;;;3.67;2.40;;;;;;;11.93;100.00;100708.34;7361062;19;20856;-47
2023/07/21 03:57:57;;;;;;;5.17;2.43;;;;;;;11.87;100.00;100718.47;7389043;19;20479;-47
2023/07/21 04:00:29;;;;;;;13.03;3.30;;;;;;;11.85;100.00;100712.38;7361788;19;20681;-48
2023/07/21 04:02:58;;;;;;;6.63;2.40;;;;;;;11.74;100.00;100722.31;7387571;19;20805;-45
2023/07/21 04:05:28;;;;;;;6.83;3.00;;;;;;;11.82;100.00;100730.34;7362481;19;20443;-43
2023/07/21 04:08:01;;;;;;;6.10;2.67;;;;;;;11.93;100.00;100723.88;7389059;19;20415;-48
2023/07/21 04:10:30;;;;;;;5.63;2.53;;;;;;;12.00;100.00;100733.59;7360232;19;20439;-42
2023/07/21 04:13:02;;;;;;;5.00;3.17;;;;;;;11.85;100.00;100740.81;7387951;19;20443;-43
2023/07/21 04:15:32;;;;;;;6.23;2.90;;;;;;;11.77;100.00;100742.22;7360471;19;21042;-44
2023/07/21 04:18:02;;;;;;;4.87;2.97;;;;;;;11.69;100.00;100744.56;7388339;19;20426;-44
2023/07/21 04:20:31;;;;;;;8.33;2.60;;;;;;;11.72;100.00;100739.47;7361262;19;20427;-45
2023/07/21 04:23:01;;;;;;;5.63;2.90;;;;;;;11.65;100.00;100743.56;7389259;19;20447;-48
2023/07/21 04:25:32;;;;;;;12.33;3.57;;;;;;;11.67;100.00;100730.66;7369774;19;20426;-42
2023/07/21 04:28:05;;;;;;;5.87;2.90;;;;;;;11.68;100.00;100733.31;7397743;19;20415;-44
2023/07/21 04:30:35;;;;;;;9.00;2.87;;;;;;;11.66;100.00;100724.63;7370077;19;20458;-42
2023/07/21 04:33:05;;;;;;;7.03;2.90;;;;;;;11.59;100.00;100733.84;7396364;19;20447;-41
2023/07/21 04:35:34;;;;;;;5.60;2.60;;;;;;;11.54;100.00;100730.22;7371042;19;20415;-42
2023/07/21 04:38:04;;;;;;;3.87;2.43;;;;;;;11.58;100.00;100721.75;7399333;19;20847;-43
2023/07/21 04:40:34;;;;;;;4.73;2.80;;;;;;;11.73;100.00;100723.13;7370906;19;20433;-43
2023/07/21 04:43:06;;;;;;;4.60;2.93;;;;;;;11.89;100.00;100711.66;7396560;19;20487;-47
2023/07/21 04:45:37;;;;;;;4.23;2.70;;;;;;;11.95;100.00;100709.28;7370094;19;20419;-46
2023/07/21 04:48:07;;;;;;;5.60;2.83;;;;;;;11.92;100.00;100711.78;7397320;19;20411;-42
2023/07/21 04:50:37;;;;;;;5.30;3.43;;;;;;;11.98;100.00;100711.09;7370396;19;20952;-43
2023/07/21 04:53:07;;;;;;;6.60;3.50;;;;;;;12.01;100.00;100714.66;7396421;19;20412;-45
2023/07/21 04:55:38;;;;;;;5.43;3.07;;;;;;;12.04;100.00;100715.66;7370125;19;20429;-43
2023/07/21 04:58:10;;;;;;;6.47;3.67;;;;;;;12.15;100.00;100724.66;7397046;19;20795;-45
2023/07/21 05:00:40;;;;;;;5.53;3.40;;;;;;;12.09;100.00;100717.56;7369863;19;20444;-44
2023/07/21 05:03:09;;;;;;;7.00;3.60;;;;;;;12.21;100.00;100709.34;7396710;19;20426;-47
2023/07/21 05:05:39;;;;;;;5.00;2.97;;;;;;;12.40;100.00;100704.78;7369139;19;20987;-42
2023/07/21 05:08:09;;;;;;;6.00;3.67;;;;;;;12.42;100.00;100705.75;7396343;19;20404;-42
2023/07/21 05:10:38;;;;;;;8.13;3.80;;;;;;;12.30;100.00;100713.94;7369303;19;20434;-43
2023/07/21 05:13:11;;;;;;;5.63;3.60;;;;;;;12.34;100.00;100709.75;7395034;19;20949;-47
2023/07/21 05:15:40;;;;;;;8.30;4.00;;;;;;;12.60;100.00;100702.00;7369701;19;20495;-44
2023/07/21 05:18:10;;;;;;;8.80;3.83;;;;;;;12.75;100.00;100702.50;7397091;19;20413;-45
2023/07/21 05:20:43;;;;;;;6.77;3.03;;;;;;;12.73;100.00;100703.25;7369475;19;20423;-44
2023/07/21 05:23:13;;;;;;;10.47;3.90;;;;;;;12.67;100.00;100714.31;7394361;19;20565;-42
2023/07/21 05:25:42;;;;;;;5.37;2.90;;;;;;;12.72;100.00;100712.72;7369269;19;20434;-45
2023/07/21 05:28:14;;;;;;;9.60;3.70;;;;;;;12.81;100.00;100709.56;7394581;19;20403;-43
2023/07/21 05:30:47;;;;;;;5.93;3.20;;;;;;;12.88;100.00;100718.41;7368552;19;20430;-44
2023/07/21 05:33:16;;;;;;;5.33;3.43;;;;;;;13.07;100.00;100723.34;7394006;19;20408;-44
2023/07/21 05:35:46;;;;;;;8.97;3.77;;;;;;;13.20;100.00;100724.59;7367513;19;21042;-44
2023/07/21 05:38:16;;;;;;;6.07;3.33;;;;;;;13.21;100.00;100733.22;7394619;19;20507;-43
2023/07/21 05:40:45;;;;;;;5.93;2.90;;;;;;;13.29;100.00;100738.66;7368142;19;20424;-46
2023/07/21 05:43:17;;;;;;;5.93;3.30;;;;;;;13.46;100.00;100749.56;7393837;19;20404;-43
2023/07/21 05:45:47;;;;;;;7.73;3.30;;;;;;;13.54;100.00;100753.25;7369131;19;20502;-43
2023/07/21 05:48:16;;;;;;;8.03;3.37;;;;;;;13.53;100.00;100767.03;7394156;19;20407;-44
2023/07/21 05:50:46;;;;;;;6.10;3.43;;;;;;;13.71;100.00;100779.69;7368165;19;20427;-43
2023/07/21 05:53:19;;;;;;;4.77;3.10;;;;;;;13.81;100.00;100792.91;7394580;19;20407;-43
2023/07/21 05:55:50;;;;;;;6.37;3.20;;;;;;;13.90;100.00;100811.34;7368616;19;20427;-44
2023/07/21 05:58:22;;;;;;;6.93;3.10;;;;;;;14.06;100.00;100809.16;7396331;19;20437;-43
2023/07/21 06:00:52;;;;;;;5.93;3.73;;;;;;;14.10;100.00;100818.81;7367908;19;21271;-42
2023/07/21 06:03:22;;;;;;;4.87;3.07;;;;;;;14.17;100.00;100833.72;7393462;19;20407;-44
2023/07/21 06:05:53;;;;;;;6.13;2.90;;;;;;;14.37;100.00;100851.53;7367551;19;20423;-43
2023/07/21 06:08:24;;;;;;;7.20;2.80;;;;;;;14.58;100.00;100872.03;7393627;19;20425;-42
2023/07/21 06:10:54;;;;;;;6.43;2.73;;;;;;;14.57;100.00;100886.72;7367479;19;20419;-44
2023/07/21 06:13:28;;;;;;;5.93;2.47;;;;;;;14.67;100.00;100903.41;7392932;19;20958;-45
2023/07/21 06:15:58;;;;;;;4.37;2.37;;;;;;;14.51;100.00;100924.63;7367549;19;20491;-45
2023/07/21 06:18:27;;;;;;;8.23;2.43;;;;;;;14.45;100.00;100953.84;7395838;19;20442;-45
2023/07/21 06:20:57;;;;;;;5.60;2.20;;;;;;;14.52;100.00;100970.50;7367145;19;20503;-46
2023/07/21 06:23:26;;;;;;;6.07;2.00;;;;;;;14.50;100.00;100990.38;7393173;19;20407;-45
2023/07/21 06:25:56;;;;;;;4.10;1.90;;;;;;;14.45;100.00;100991.09;7366613;19;20482;-45
2023/07/21 06:28:29;;;;;;;5.00;2.00;;;;;;;14.65;100.00;101003.78;7393435;19;20432;-46
2023/07/21 06:30:59;;;;;;;10.70;1.80;;;;;;;14.74;100.00;101000.59;7367138;19;20438;-46
2023/07/21 06:33:28;;;;;;;6.50;1.80;;;;;;;14.71;100.00;100993.56;7392950;19;20420;-46
2023/07/21 06:35:58;;;;;;;11.43;5.50;;;;;;;15.02;100.00;100987.50;7366015;19;20429;-46
2023/07/21 06:38:27;;;;;;;6.50;1.70;;;;;;;14.89;100.00;101007.06;7394440;19;20403;-44
2023/07/21 06:40:57;;;;;;;5.67;2.27;;;;;;;14.91;100.00;101011.47;7366685;19;20427;-46
2023/07/21 06:43:29;;;;;;;9.03;2.33;;;;;;;14.96;100.00;101017.66;7392642;19;20415;-43
2023/07/21 06:45:59;;;;;;;3.57;1.80;;;;;;;15.03;100.00;101021.28;7366302;19;20881;-47
2023/07/21 06:48:29;;;;;;;4.57;2.47;;;;;;;15.09;100.00;101054.38;7391506;19;20987;-42
2023/07/21 06:50:59;;;;;;;9.83;2.27;;;;;;;15.07;100.00;101053.47;7366988;19;20411;-43
2023/07/21 06:53:28;;;;;;;3.10;1.70;;;;;;;15.19;100.00;101058.13;7392824;19;20413;-46
2023/07/21 06:55:58;;;;;;;7.93;1.50;;;;;;;15.23;100.00;101065.16;7367439;19;20804;-46
2023/07/21 06:58:30;;;;;;;5.60;1.90;;;;;;;15.41;100.00;101077.78;7394395;19;20425;-47
2023/07/21 07:01:00;;;;;;;4.20;1.37;;;;;;;15.48;100.00;101097.03;7366212;19;20429;-47
2023/07/21 07:03:30;;;;;;;3.93;1.23;;;;;;;15.50;100.00;101106.59;7391747;19;20415;-44
2023/07/21 07:06:00;;;;;;;2.70;1.37;;;;;;;15.40;100.00;101125.41;7365868;19;20434;-46
2023/07/21 07:08:29;;;;;;;2.33;1.00;;;;;;;15.39;100.00;101126.25;7392516;19;20428;-45
2023/07/21 07:10:59;;;;;;;4.70;1.30;;;;;;;15.35;100.00;101129.59;7367158;19;20422;-45
2023/07/21 07:13:31;;;;;;;4.43;1.50;;;;;;;15.34;100.00;101131.31;7391318;19;20410;-45
2023/07/21 07:16:01;;;;;;;5.10;1.10;;;;;;;15.38;100.00;101142.66;7365846;19;20423;-46
2023/07/21 07:18:30;;;;;;;3.20;1.37;;;;;;;15.33;100.00;101133.88;7392140;19;21047;-44
2023/07/21 07:21:00;;;;;;;6.93;1.37;;;;;;;15.33;100.00;101139.09;7365220;19;20512;-45
2023/07/21 07:23:29;;;;;;;4.47;1.33;;;;;;;15.38;100.00;101134.88;7391563;19;20419;-45
2023/07/21 07:26:01;;;;;;;3.50;1.30;;;;;;;15.57;100.00;101132.78;7365696;19;20419;-43
2023/07/21 07:28:34;;;;;;;3.30;1.50;;;;;;;15.64;100.00;101134.72;7391634;19;20939;-43
2023/07/21 07:31:05;;;;;;;3.67;1.40;;;;;;;15.65;100.00;101136.50;7365014;19;20469;-43
2023/07/21 07:33:35;;;;;;;3.53;1.33;;;;;;;15.74;100.00;101134.13;7391305;19;20408;-45
2023/07/21 07:36:05;;;;;;;3.53;1.50;;;;;;;15.91;100.00;101128.47;7365421;19;20427;-45
2023/07/21 07:38:35;;;;;;;4.27;1.33;;;;;;;15.77;100.00;101144.63;7393581;19;20414;-42
2023/07/21 07:41:08;;;;;;;3.93;1.77;;;;;;;15.84;100.00;101142.19;7365247;19;21015;-45
2023/07/21 07:43:40;;;;;;;5.57;1.53;;;;;;;15.82;100.00;101149.03;7390879;19;20412;-44
2023/07/21 07:46:10;;;;;;;3.43;1.30;;;;;;;16.00;100.00;101148.69;7365743;19;20434;-41
2023/07/21 07:48:39;;;;;;;2.80;1.27;;;;;;;15.97;100.00;101149.50;7393584;19;20770;-42
2023/07/21 07:51:10;;;;;;;10.80;3.53;;;;;;;16.18;100.00;101140.44;7364937;19;21021;-44
2023/07/21 07:53:39;;;;;;;4.40;1.13;;;;;;;16.08;100.00;101141.06;7390994;19;20408;-43
2023/07/21 07:56:15;;;;;;;3.30;1.17;;;;;;;16.21;100.00;101137.94;7362062;19;20943;-43
2023/07/21 07:58:47;;;;;;;4.53;1.27;;;;;;;16.19;100.00;101150.91;7394870;19;20416;-44
2023/07/21 08:01:17;;;;;;;4.53;1.30;;;;;;;16.31;100.00;101150.31;7372224;19;20550;-44
2023/07/21 08:03:46;;;;;;;5.00;2.37;;;;;;;16.47;100.00;101155.91;7397120;19;20951;-46
2023/07/21 08:06:16;;;;;;;5.80;1.73;;;;;;;16.57;100.00;101152.66;7372367;19;20462;-44
2023/07/21 08:08:46;;;;;;;5.30;1.47;;;;;;;16.65;100.00;101154.56;7398175;19;20407;-46
2023/07/21 08:11:15;;;;;;;4.17;1.67;;;;;;;16.52;100.00;101162.13;7371571;19;20474;-48
2023/07/21 08:13:48;;;;;;;5.60;2.03;;;;;;;16.52;100.00;101167.31;7397265;19;20403;-44
2023/07/21 08:16:18;;;;;;;6.07;1.57;;;;;;;16.57;100.00;101173.50;7372808;19;20963;-41
2023/07/21 08:18:48;;;;;;;4.90;1.40;;;;;;;16.52;100.00;101176.84;7397789;19;20417;-41
2023/07/21 08:21:22;;;;;;;3.97;1.43;;;;;;;16.42;100.00;101179.22;7371109;19;20566;-45
2023/07/21 08:23:54;;;;;;;5.80;2.40;;;;;;;16.22;100.00;101181.34;7392307;19;20914;-47
2023/07/21 08:26:24;;;;;;;5.30;1.70;;;;;;;16.20;100.00;101177.81;7375640;19;20422;-44
2023/07/21 08:28:59;;;;;;;6.77;3.37;;;;;;;16.36;100.00;101178.19;7372681;19;20400;-46
2023/07/21 08:31:29;;;;;;;15.10;6.77;;;;;;;16.40;100.00;101178.31;7394057;19;20455;-48
2023/07/21 08:33:59;;;;;;;27.93;16.37;;;;;;;16.76;100.00;101176.53;7372178;19;20420;-47
2023/07/21 08:36:28;;;;;;;9.70;4.70;;;;;;;17.10;100.00;101181.66;7394050;19;20976;-48
2023/07/21 08:39:17;;;;;;;16.87;9.80;;;;;;;17.48;100.00;101180.69;7369654;19;20787;-43
2023/07/21 08:41:48;;;;;;;5.33;1.93;;;;;;;17.48;100.00;101178.09;7395261;19;20458;-48
2023/07/21 08:44:22;;;;;;;5.30;2.40;;;;;;;17.47;100.00;101184.13;7370011;19;21167;-43
2023/07/21 08:46:51;;;;;;;5.13;1.87;;;;;;;17.51;100.00;101189.47;7395341;19;20418;-43
2023/07/21 08:49:21;;;;;;;15.57;6.97;;;;;;;17.56;100.00;101171.28;7370005;19;20399;-45
2023/07/21 08:51:51;;;;;;;5.23;2.80;;;;;;;17.44;100.00;101168.44;7394835;19;20445;-47
2023/07/21 08:54:20;;;;;;;12.83;4.43;;;;;;;17.43;100.00;101174.50;7369022;19;20416;-43
2023/07/21 08:56:50;;;;;;;4.43;1.73;;;;;;;17.50;100.00;101176.38;7395253;19;20415;-42
2023/07/21 08:59:23;;;;;;;3.13;1.43;;;;;;;17.37;100.00;101165.72;7372008;19;20405;-43
2023/07/21 09:01:52;;;;;;;5.47;2.30;;;;;;;17.45;100.00;101160.66;7395278;19;20431;-43
2023/07/21 09:04:23;;;;;;;10.70;5.90;;;;;;;17.48;100.00;101149.41;7388677;19;20403;-46
2023/07/21 09:06:54;;;;;;;3.77;2.00;;;;;;;17.43;100.00;101172.75;7396187;19;20399;-50
2023/07/21 09:09:24;;;;;;;38.30;18.47;;;;;;;17.26;100.00;101130.72;7364908;19;20424;-43
2023/07/21 09:12:02;;;;;;;18.87;9.33;;;;;;;17.26;100.00;101115.06;7394714;19;20442;-46
2023/07/21 09:14:41;;;;;;;24.63;11.27;;;;;;;17.14;100.00;101107.88;7367282;19;20423;-47
2023/07/21 09:17:12;;;;;;;4.70;2.17;;;;;;;17.27;100.00;101146.38;7395210;19;20408;-43
2023/07/21 09:19:43;;;;;;;15.07;8.07;;;;;;;17.28;100.00;101157.72;7368664;19;20838;-47
2023/07/21 09:22:14;;;;;;;18.07;8.60;;;;;;;17.17;100.00;101161.81;7393777;19;20447;-43
2023/07/21 09:24:51;;;;;;;8.63;3.03;;;;;;;17.09;100.00;101128.66;7370298;19;20491;-42
2023/07/21 09:27:22;;;;;;;4.50;2.20;;;;;;;17.00;100.00;101099.75;7396779;19;20400;-45
2023/07/21 09:30:02;;;;;;;29.60;13.10;;;;;;;16.85;100.00;101092.47;7371085;19;20502;-47
2023/07/21 09:32:40;;;;;;;27.30;11.77;;;;;;;16.96;100.00;101087.47;7393894;19;20439;-45
2023/07/21 09:35:11;;;;;;;4.53;1.83;;;;;;;16.88;100.00;101059.53;7395827;19;20907;-47
2023/07/21 09:37:41;;;;;;;5.43;1.60;;;;;;;16.84;100.00;101070.78;7368956;19;20939;-46
2023/07/21 09:40:12;;;;;;;13.00;5.77;;;;;;;16.76;100.00;101059.28;7395444;19;20403;-46
2023/07/21 09:42:43;;;;;;;8.67;4.13;;;;;;;16.83;100.00;101050.75;7367891;19;20453;-47
2023/07/21 09:45:16;;;;;;;7.40;3.20;;;;;;;17.23;100.00;101045.47;7393813;19;20403;-48
2023/07/21 09:47:45;;;;;;;10.33;4.33;;;;;;;17.62;100.00;101006.16;7369482;19;20973;-44
2023/07/21 09:50:15;;;;;;;30.97;13.50;;;;;;;17.89;100.00;100994.44;7393847;19;20751;-43
2023/07/21 09:52:48;;;;;;;3.63;1.53;;;;;;;17.98;100.00;100937.13;7368316;19;20434;-44
2023/07/21 09:55:19;;;;;;;9.27;4.33;;;;;;;18.26;100.00;100947.09;7394174;19;20483;-47
2023/07/21 09:57:51;;;;;;;5.40;1.67;;;;;;;18.43;100.00;100893.34;7369424;19;20427;-44
2023/07/21 10:00:28;;;;;;;8.87;4.70;;;;;;;18.28;100.00;100804.38;7393908;19;20399;-44
2023/07/21 10:02:58;;;;;;;4.13;1.50;;;;;;;18.46;100.00;100786.28;7368342;19;20427;-44
2023/07/21 10:05:27;;;;;;;4.20;1.50;;;;;;;18.68;100.00;100820.47;7394112;19;20420;-44
2023/07/21 10:07:57;;;;;;;4.27;1.60;;;;;;;18.50;100.00;100729.72;7368357;19;20478;-46
2023/07/21 10:10:27;;;;;;;3.60;1.33;;;;;;;18.62;100.00;100627.06;7393594;19;20943;-45
2023/07/21 10:12:57;;;;;;;18.40;7.90;;;;;;;18.82;100.00;100568.81;7368212;19;20845;-46
2023/07/21 10:15:34;;;;;;;3.63;1.40;;;;;;;19.09;100.00;100546.28;7393679;19;21169;-44
2023/07/21 10:18:06;;;;;;;44.63;20.13;;;;;;;19.17;100.00;100413.81;7369143;19;20427;-42
2023/07/21 10:20:44;;;;;;;43.60;22.40;;;;;;;19.07;100.00;100339.75;7393931;19;20499;-46
2023/07/21 10:23:15;;;;;;;13.47;6.27;;;;;;;18.91;100.00;100304.88;7366232;19;20451;-45
2023/07/21 10:26:04;;;;;;;9.47;4.40;;;;;;;19.09;100.00;100282.25;7394428;19;20490;-46
2023/07/21 10:28:42;;;;;;;17.77;7.50;;;;;;;19.09;100.00;100277.91;7360889;19;20454;-48
2023/07/21 10:31:39;;;;;;;10.27;4.37;;;;;;;19.33;100.00;100272.63;7362676;19;20423;-49
2023/07/21 10:42:43;;;;;;;6.00;2.77;;;;;;;19.86;100.00;100285.53;7382517;19;20552;-34
2023/07/21 10:45:14;;;;;;;31.73;12.63;;;;;;;19.62;100.00;100292.59;7422450;19;20411;-35
2023/07/21 10:47:42;;;;;;;12.23;5.23;;;;;;;19.37;100.00;100261.25;7401370;19;20498;-34
2023/07/21 10:50:12;;;;;;;4.80;1.80;;;;;;;19.23;100.00;100275.25;7424889;19;20423;-34
2023/07/21 10:52:40;;;;;;;14.73;6.37;;;;;;;19.52;100.00;100273.44;7398202;19;20425;-35
2023/07/21 10:55:09;;;;;;;7.03;3.50;;;;;;;19.10;100.00;100278.75;7422588;19;20403;-34
2023/07/21 10:57:37;;;;;;;8.70;3.97;;;;;;;19.00;100.00;100281.34;7393665;19;20462;-35
2023/07/21 11:00:11;;;;;;;21.27;8.23;;;;;;;19.15;100.00;100283.13;7268609;19;2925962;-39
2023/07/21 11:02:41;;;;;;;4.80;1.47;;;;;;;19.27;100.00;100277.00;7399881;19;20663;-34
2023/07/21 11:05:11;;;;;;;28.10;12.73;;;;;;;19.81;100.00;100281.19;7427733;19;20413;-35
2023/07/21 11:07:41;;;;;;;14.20;6.67;;;;;;;19.63;100.00;100292.59;7401857;19;20458;-36
2023/07/21 11:10:11;;;;;;;9.63;4.67;;;;;;;19.16;100.00;100276.13;7427158;19;20411;-35
2023/07/21 11:12:41;;;;;;;8.90;3.63;;;;;;;18.97;100.00;100262.19;7400741;19;21017;-36
2023/07/21 11:15:13;;;;;;;3.73;1.40;;;;;;;19.55;100.00;100242.88;7427665;19;20500;-35
2023/07/21 11:17:43;;;;;;;19.37;9.77;;;;;;;19.88;100.00;100294.25;7401706;19;20442;-37
2023/07/21 11:20:14;;;;;;;7.90;2.83;;;;;;;19.59;100.00;100258.59;7426257;19;20420;-36
2023/07/21 11:22:44;;;;;;;7.80;2.47;;;;;;;19.61;100.00;100247.25;7398811;19;20777;-38
2023/07/21 11:25:17;;;;;;;4.37;1.50;;;;;;;19.12;100.00;100253.50;7428656;19;20407;-36
2023/07/21 11:27:48;;;;;;;21.23;9.80;;;;;;;19.20;100.00;100264.81;7401719;19;20423;-35
2023/07/21 11:30:22;;;;;;;5.60;2.27;;;;;;;19.00;100.00;100252.59;7424869;19;20944;-36
2023/07/21 11:33:09;;;;;;;7.87;3.70;;;;;;;18.76;100.00;100263.91;7402115;19;20456;-35
2023/07/21 11:35:48;;;;;;;9.60;4.23;;;;;;;18.71;100.00;100444.22;7426584;19;20407;-38
2023/07/21 11:38:18;;;;;;;4.57;2.17;;;;;;;18.89;100.00;100435.56;7402317;19;20446;-39
2023/07/21 11:40:50;;;;;;;10.10;5.60;;;;;;;18.78;100.00;100452.06;7426217;19;20463;-40